sensor_id;sensor_type;location;lat;lon;timestamp;P1;durP1;ratioP1;P2;durP2;ratioP2
19107;SDS011;9686;48.832;9.126;2023-06-24T00:00:49;4.40;;;4.00;;
19107;SDS011;9686;48.832;9.126;2023-06-24T00:03:17;4.67;;;3.70;;
19107;SDS011;9686;48.832;9.126;2023-06-24T00:05:42;6.57;;;4.30;;
19107;SDS011;9686;48.832;9.126;2023-06-24T00:08:08;4.37;;;3.70;;
19107;SDS011;9686;48.832;9.126;2023-06-24T00:10:33;5.37;;;4.30;;
19107;SDS011;9686;48.832;9.126;2023-06-24T00:12:58;4.77;;;3.93;;
19107;SDS011;9686;48.832;9.126;2023-06-24T00:15:27;5.27;;;3.83;;
19107;SDS011;9686;48.832;9.126;2023-06-24T00:17:53;4.53;;;4.03;;
19107;SDS011;9686;48.832;9.126;2023-06-24T00:20:18;4.93;;;4.20;;
19107;SDS011;9686;48.832;9.126;2023-06-24T00:22:45;4.00;;;3.60;;
19107;SDS011;9686;48.832;9.126;2023-06-24T00:25:13;4.83;;;4.33;;
19107;SDS011;9686;48.832;9.126;2023-06-24T00:27:40;5.63;;;4.13;;
19107;SDS011;9686;48.832;9.126;2023-06-24T00:30:06;4.83;;;3.90;;
19107;SDS011;9686;48.832;9.126;2023-06-24T00:32:32;4.37;;;3.83;;
19107;SDS011;9686;48.832;9.126;2023-06-24T00:34:57;4.20;;;3.80;;
19107;SDS011;9686;48.832;9.126;2023-06-24T00:37:24;4.67;;;3.47;;
19107;SDS011;9686;48.832;9.126;2023-06-24T00:39:50;5.67;;;4.00;;
19107;SDS011;9686;48.832;9.126;2023-06-24T00:42:15;6.37;;;4.10;;
19107;SDS011;9686;48.832;9.126;2023-06-24T00:44:41;4.57;;;3.60;;
19107;SDS011;9686;48.832;9.126;2023-06-24T00:47:06;5.03;;;3.77;;
19107;SDS011;9686;48.832;9.126;2023-06-24T00:49:33;5.43;;;4.10;;
19107;SDS011;9686;48.832;9.126;2023-06-24T00:51:58;4.83;;;4.33;;
19107;SDS011;9686;48.832;9.126;2023-06-24T00:54:26;5.93;;;4.20;;
19107;SDS011;9686;48.832;9.126;2023-06-24T00:56:56;5.63;;;4.23;;
19107;SDS011;9686;48.832;9.126;2023-06-24T00:59:22;4.63;;;4.00;;
19107;SDS011;9686;48.832;9.126;2023-06-24T01:01:48;4.63;;;4.23;;
19107;SDS011;9686;48.832;9.126;2023-06-24T01:04:17;5.80;;;4.40;;
19107;SDS011;9686;48.832;9.126;2023-06-24T01:06:43;4.53;;;3.80;;
19107;SDS011;9686;48.832;9.126;2023-06-24T01:09:09;6.60;;;4.47;;
19107;SDS011;9686;48.832;9.126;2023-06-24T01:11:34;5.03;;;4.53;;
19107;SDS011;9686;48.832;9.126;2023-06-24T01:13:59;4.93;;;4.43;;
19107;SDS011;9686;48.832;9.126;2023-06-24T01:16:37;4.30;;;3.87;;
19107;SDS011;9686;48.832;9.126;2023-06-24T01:19:18;4.93;;;4.37;;
19107;SDS011;9686;48.832;9.126;2023-06-24T01:22:04;6.73;;;4.87;;
19107;SDS011;9686;48.832;9.126;2023-06-24T01:24:51;6.13;;;4.40;;
19107;SDS011;9686;48.832;9.126;2023-06-24T01:27:50;5.10;;;4.60;;
19107;SDS011;9686;48.832;9.126;2023-06-24T01:30:22;5.30;;;4.30;;
19107;SDS011;9686;48.832;9.126;2023-06-24T01:33:07;5.10;;;4.60;;
19107;SDS011;9686;48.832;9.126;2023-06-24T01:35:35;5.67;;;4.70;;
19107;SDS011;9686;48.832;9.126;2023-06-24T01:38:03;5.50;;;4.93;;
19107;SDS011;9686;48.832;9.126;2023-06-24T01:40:39;4.97;;;4.33;;
19107;SDS011;9686;48.832;9.126;2023-06-24T01:43:08;8.53;;;5.13;;
19107;SDS011;9686;48.832;9.126;2023-06-24T01:45:40;7.50;;;5.50;;
19107;SDS011;9686;48.832;9.126;2023-06-24T01:48:07;6.73;;;5.90;;
19107;SDS011;9686;48.832;9.126;2023-06-24T01:50:36;6.43;;;5.40;;
19107;SDS011;9686;48.832;9.126;2023-06-24T01:53:07;6.00;;;5.33;;
19107;SDS011;9686;48.832;9.126;2023-06-24T01:55:33;5.90;;;4.80;;
19107;SDS011;9686;48.832;9.126;2023-06-24T01:58:02;7.30;;;5.30;;
19107;SDS011;9686;48.832;9.126;2023-06-24T02:00:30;7.57;;;5.47;;
19107;SDS011;9686;48.832;9.126;2023-06-24T02:02:57;6.90;;;4.93;;
19107;SDS011;9686;48.832;9.126;2023-06-24T02:05:23;6.00;;;5.40;;
19107;SDS011;9686;48.832;9.126;2023-06-24T02:07:50;5.47;;;4.70;;
19107;SDS011;9686;48.832;9.126;2023-06-24T02:10:17;5.83;;;5.23;;
19107;SDS011;9686;48.832;9.126;2023-06-24T02:12:44;6.23;;;5.50;;
19107;SDS011;9686;48.832;9.126;2023-06-24T02:15:11;5.70;;;5.10;;
19107;SDS011;9686;48.832;9.126;2023-06-24T02:17:37;5.90;;;5.00;;
19107;SDS011;9686;48.832;9.126;2023-06-24T02:20:05;5.97;;;5.37;;
19107;SDS011;9686;48.832;9.126;2023-06-24T02:22:35;8.53;;;6.07;;
19107;SDS011;9686;48.832;9.126;2023-06-24T02:25:02;6.00;;;5.27;;
19107;SDS011;9686;48.832;9.126;2023-06-24T02:27:30;7.40;;;5.60;;
19107;SDS011;9686;48.832;9.126;2023-06-24T02:29:56;6.57;;;5.27;;
19107;SDS011;9686;48.832;9.126;2023-06-24T02:32:23;5.97;;;4.80;;
19107;SDS011;9686;48.832;9.126;2023-06-24T02:34:48;5.70;;;4.97;;
19107;SDS011;9686;48.832;9.126;2023-06-24T02:37:14;5.70;;;5.03;;
19107;SDS011;9686;48.832;9.126;2023-06-24T02:39:39;7.93;;;5.33;;
19107;SDS011;9686;48.832;9.126;2023-06-24T02:42:09;5.60;;;5.10;;
19107;SDS011;9686;48.832;9.126;2023-06-24T02:44:35;7.00;;;5.13;;
19107;SDS011;9686;48.832;9.126;2023-06-24T02:47:00;7.23;;;4.53;;
19107;SDS011;9686;48.832;9.126;2023-06-24T02:49:27;7.30;;;5.13;;
19107;SDS011;9686;48.832;9.126;2023-06-24T02:51:53;5.90;;;4.70;;
19107;SDS011;9686;48.832;9.126;2023-06-24T02:54:19;7.37;;;5.17;;
19107;SDS011;9686;48.832;9.126;2023-06-24T02:56:45;7.10;;;5.97;;
19107;SDS011;9686;48.832;9.126;2023-06-24T02:59:18;5.10;;;4.60;;
19107;SDS011;9686;48.832;9.126;2023-06-24T03:01:47;5.27;;;4.70;;
19107;SDS011;9686;48.832;9.126;2023-06-24T03:04:12;6.00;;;5.10;;
19107;SDS011;9686;48.832;9.126;2023-06-24T03:06:38;6.37;;;4.97;;
19107;SDS011;9686;48.832;9.126;2023-06-24T03:09:05;5.87;;;5.27;;
19107;SDS011;9686;48.832;9.126;2023-06-24T03:11:30;5.87;;;4.90;;
19107;SDS011;9686;48.832;9.126;2023-06-24T03:13:56;7.10;;;5.10;;
19107;SDS011;9686;48.832;9.126;2023-06-24T03:16:21;5.67;;;5.17;;
19107;SDS011;9686;48.832;9.126;2023-06-24T03:18:46;5.87;;;4.67;;
19107;SDS011;9686;48.832;9.126;2023-06-24T03:21:12;5.17;;;4.67;;
19107;SDS011;9686;48.832;9.126;2023-06-24T03:23:37;5.17;;;4.67;;
19107;SDS011;9686;48.832;9.126;2023-06-24T03:26:02;5.47;;;4.90;;
19107;SDS011;9686;48.832;9.126;2023-06-24T03:28:29;5.67;;;4.77;;
19107;SDS011;9686;48.832;9.126;2023-06-24T03:30:55;7.30;;;5.17;;
19107;SDS011;9686;48.832;9.126;2023-06-24T03:33:21;6.30;;;4.83;;
19107;SDS011;9686;48.832;9.126;2023-06-24T03:35:46;6.50;;;4.90;;
19107;SDS011;9686;48.832;9.126;2023-06-24T03:38:11;5.97;;;5.00;;
19107;SDS011;9686;48.832;9.126;2023-06-24T03:40:37;6.37;;;4.80;;
19107;SDS011;9686;48.832;9.126;2023-06-24T03:43:02;5.07;;;4.63;;
19107;SDS011;9686;48.832;9.126;2023-06-24T03:45:28;6.67;;;5.27;;
19107;SDS011;9686;48.832;9.126;2023-06-24T03:47:53;6.00;;;4.93;;
19107;SDS011;9686;48.832;9.126;2023-06-24T03:50:18;6.43;;;5.17;;
19107;SDS011;9686;48.832;9.126;2023-06-24T03:52:43;7.20;;;4.90;;
19107;SDS011;9686;48.832;9.126;2023-06-24T03:55:09;5.97;;;5.37;;
19107;SDS011;9686;48.832;9.126;2023-06-24T03:57:36;5.67;;;5.00;;
19107;SDS011;9686;48.832;9.126;2023-06-24T04:00:01;8.47;;;5.87;;
19107;SDS011;9686;48.832;9.126;2023-06-24T04:02:31;6.83;;;5.43;;
19107;SDS011;9686;48.832;9.126;2023-06-24T04:04:57;6.83;;;5.57;;
19107;SDS011;9686;48.832;9.126;2023-06-24T04:07:23;6.13;;;5.03;;
19107;SDS011;9686;48.832;9.126;2023-06-24T04:09:55;6.20;;;5.60;;
19107;SDS011;9686;48.832;9.126;2023-06-24T04:12:21;5.43;;;4.60;;
19107;SDS011;9686;48.832;9.126;2023-06-24T04:14:46;7.00;;;5.17;;
19107;SDS011;9686;48.832;9.126;2023-06-24T04:17:11;4.83;;;4.33;;
19107;SDS011;9686;48.832;9.126;2023-06-24T04:19:36;5.43;;;4.80;;
19107;SDS011;9686;48.832;9.126;2023-06-24T04:22:02;5.13;;;4.63;;
19107;SDS011;9686;48.832;9.126;2023-06-24T04:24:27;6.13;;;4.63;;
19107;SDS011;9686;48.832;9.126;2023-06-24T04:26:52;6.23;;;5.53;;
19107;SDS011;9686;48.832;9.126;2023-06-24T04:29:18;5.63;;;5.03;;
19107;SDS011;9686;48.832;9.126;2023-06-24T04:31:43;5.60;;;5.07;;
19107;SDS011;9686;48.832;9.126;2023-06-24T04:34:08;5.83;;;5.00;;
19107;SDS011;9686;48.832;9.126;2023-06-24T04:36:33;6.40;;;4.83;;
19107;SDS011;9686;48.832;9.126;2023-06-24T04:39:00;5.80;;;4.93;;
19107;SDS011;9686;48.832;9.126;2023-06-24T04:41:25;5.47;;;4.97;;
19107;SDS011;9686;48.832;9.126;2023-06-24T04:43:50;6.57;;;5.43;;
19107;SDS011;9686;48.832;9.126;2023-06-24T04:46:16;6.27;;;5.67;;
19107;SDS011;9686;48.832;9.126;2023-06-24T04:48:41;8.27;;;4.80;;
19107;SDS011;9686;48.832;9.126;2023-06-24T04:51:06;5.60;;;5.00;;
19107;SDS011;9686;48.832;9.126;2023-06-24T04:53:31;5.60;;;4.97;;
19107;SDS011;9686;48.832;9.126;2023-06-24T04:55:57;5.30;;;4.60;;
19107;SDS011;9686;48.832;9.126;2023-06-24T04:58:22;6.30;;;4.97;;
19107;SDS011;9686;48.832;9.126;2023-06-24T05:00:47;6.90;;;5.70;;
19107;SDS011;9686;48.832;9.126;2023-06-24T05:03:13;5.43;;;4.87;;
19107;SDS011;9686;48.832;9.126;2023-06-24T05:05:38;6.80;;;5.33;;
19107;SDS011;9686;48.832;9.126;2023-06-24T05:08:04;5.60;;;4.97;;
19107;SDS011;9686;48.832;9.126;2023-06-24T05:10:29;6.73;;;6.03;;
19107;SDS011;9686;48.832;9.126;2023-06-24T05:12:54;5.60;;;5.10;;
19107;SDS011;9686;48.832;9.126;2023-06-24T05:15:20;6.00;;;5.20;;
19107;SDS011;9686;48.832;9.126;2023-06-24T05:17:45;8.17;;;5.60;;
19107;SDS011;9686;48.832;9.126;2023-06-24T05:20:10;5.73;;;5.10;;
19107;SDS011;9686;48.832;9.126;2023-06-24T05:22:36;5.90;;;4.97;;
19107;SDS011;9686;48.832;9.126;2023-06-24T05:25:02;6.67;;;4.67;;
19107;SDS011;9686;48.832;9.126;2023-06-24T05:27:27;6.83;;;4.70;;
19107;SDS011;9686;48.832;9.126;2023-06-24T05:29:52;5.50;;;4.67;;
19107;SDS011;9686;48.832;9.126;2023-06-24T05:32:18;6.03;;;5.23;;
19107;SDS011;9686;48.832;9.126;2023-06-24T05:34:45;4.83;;;4.43;;
19107;SDS011;9686;48.832;9.126;2023-06-24T05:37:10;5.73;;;4.80;;
19107;SDS011;9686;48.832;9.126;2023-06-24T05:39:36;5.07;;;4.30;;
19107;SDS011;9686;48.832;9.126;2023-06-24T05:42:01;5.10;;;4.60;;
19107;SDS011;9686;48.832;9.126;2023-06-24T05:44:26;6.20;;;4.83;;
19107;SDS011;9686;48.832;9.126;2023-06-24T05:46:52;7.57;;;5.00;;
19107;SDS011;9686;48.832;9.126;2023-06-24T05:49:17;6.33;;;4.77;;
19107;SDS011;9686;48.832;9.126;2023-06-24T05:51:42;5.33;;;4.83;;
19107;SDS011;9686;48.832;9.126;2023-06-24T05:54:08;6.30;;;5.10;;
19107;SDS011;9686;48.832;9.126;2023-06-24T05:56:33;5.47;;;4.87;;
19107;SDS011;9686;48.832;9.126;2023-06-24T05:58:58;5.17;;;4.67;;
19107;SDS011;9686;48.832;9.126;2023-06-24T06:01:24;6.60;;;4.40;;
19107;SDS011;9686;48.832;9.126;2023-06-24T06:03:49;6.17;;;4.47;;
19107;SDS011;9686;48.832;9.126;2023-06-24T06:06:14;4.63;;;4.07;;
19107;SDS011;9686;48.832;9.126;2023-06-24T06:08:40;4.43;;;4.03;;
19107;SDS011;9686;48.832;9.126;2023-06-24T06:11:05;5.57;;;4.40;;
19107;SDS011;9686;48.832;9.126;2023-06-24T06:13:31;4.20;;;3.80;;
19107;SDS011;9686;48.832;9.126;2023-06-24T06:15:57;5.30;;;4.13;;
19107;SDS011;9686;48.832;9.126;2023-06-24T06:18:23;5.40;;;4.00;;
19107;SDS011;9686;48.832;9.126;2023-06-24T06:20:48;5.90;;;4.30;;
19107;SDS011;9686;48.832;9.126;2023-06-24T06:23:14;4.43;;;4.00;;
19107;SDS011;9686;48.832;9.126;2023-06-24T06:25:40;3.93;;;3.53;;
19107;SDS011;9686;48.832;9.126;2023-06-24T06:28:05;5.03;;;3.60;;
19107;SDS011;9686;48.832;9.126;2023-06-24T06:30:31;5.23;;;3.70;;
19107;SDS011;9686;48.832;9.126;2023-06-24T06:32:56;4.63;;;4.07;;
19107;SDS011;9686;48.832;9.126;2023-06-24T06:35:21;5.23;;;3.83;;
19107;SDS011;9686;48.832;9.126;2023-06-24T06:37:47;4.47;;;4.00;;
19107;SDS011;9686;48.832;9.126;2023-06-24T06:40:17;3.70;;;3.40;;
19107;SDS011;9686;48.832;9.126;2023-06-24T06:42:45;4.47;;;3.93;;
19107;SDS011;9686;48.832;9.126;2023-06-24T06:45:11;4.30;;;3.90;;
19107;SDS011;9686;48.832;9.126;2023-06-24T06:47:36;4.30;;;3.90;;
19107;SDS011;9686;48.832;9.126;2023-06-24T06:50:02;5.50;;;4.43;;
19107;SDS011;9686;48.832;9.126;2023-06-24T06:52:27;4.20;;;3.80;;
19107;SDS011;9686;48.832;9.126;2023-06-24T06:54:53;4.13;;;3.57;;
19107;SDS011;9686;48.832;9.126;2023-06-24T06:57:19;4.57;;;3.93;;
19107;SDS011;9686;48.832;9.126;2023-06-24T06:59:44;6.77;;;3.80;;
19107;SDS011;9686;48.832;9.126;2023-06-24T07:02:10;4.67;;;4.17;;
19107;SDS011;9686;48.832;9.126;2023-06-24T07:04:35;4.90;;;4.03;;
19107;SDS011;9686;48.832;9.126;2023-06-24T07:07:00;6.57;;;3.57;;
19107;SDS011;9686;48.832;9.126;2023-06-24T07:09:26;5.00;;;3.57;;
19107;SDS011;9686;48.832;9.126;2023-06-24T07:11:51;5.43;;;3.73;;
19107;SDS011;9686;48.832;9.126;2023-06-24T07:14:16;4.80;;;3.77;;
19107;SDS011;9686;48.832;9.126;2023-06-24T07:16:42;4.07;;;3.20;;
19107;SDS011;9686;48.832;9.126;2023-06-24T07:19:07;4.90;;;3.40;;
19107;SDS011;9686;48.832;9.126;2023-06-24T07:21:32;3.87;;;3.43;;
19107;SDS011;9686;48.832;9.126;2023-06-24T07:23:58;3.77;;;3.37;;
19107;SDS011;9686;48.832;9.126;2023-06-24T07:26:23;4.20;;;3.20;;
19107;SDS011;9686;48.832;9.126;2023-06-24T07:28:48;3.60;;;3.30;;
19107;SDS011;9686;48.832;9.126;2023-06-24T07:31:13;4.63;;;3.80;;
19107;SDS011;9686;48.832;9.126;2023-06-24T07:33:39;3.80;;;3.43;;
19107;SDS011;9686;48.832;9.126;2023-06-24T07:36:04;3.43;;;3.13;;
19107;SDS011;9686;48.832;9.126;2023-06-24T07:38:30;3.53;;;3.23;;
19107;SDS011;9686;48.832;9.126;2023-06-24T07:40:55;3.53;;;3.23;;
19107;SDS011;9686;48.832;9.126;2023-06-24T07:43:20;4.00;;;3.60;;
19107;SDS011;9686;48.832;9.126;2023-06-24T07:45:46;4.40;;;3.60;;
19107;SDS011;9686;48.832;9.126;2023-06-24T07:48:11;5.97;;;3.40;;
19107;SDS011;9686;48.832;9.126;2023-06-24T07:50:37;3.33;;;3.00;;
19107;SDS011;9686;48.832;9.126;2023-06-24T07:53:03;4.80;;;3.50;;
19107;SDS011;9686;48.832;9.126;2023-06-24T07:55:28;3.50;;;2.97;;
19107;SDS011;9686;48.832;9.126;2023-06-24T07:57:54;3.40;;;3.10;;
19107;SDS011;9686;48.832;9.126;2023-06-24T08:00:19;5.60;;;3.80;;
19107;SDS011;9686;48.832;9.126;2023-06-24T08:02:44;3.47;;;3.00;;
19107;SDS011;9686;48.832;9.126;2023-06-24T08:05:09;3.33;;;3.03;;
19107;SDS011;9686;48.832;9.126;2023-06-24T08:07:35;4.40;;;3.30;;
19107;SDS011;9686;48.832;9.126;2023-06-24T08:10:02;3.47;;;3.17;;
19107;SDS011;9686;48.832;9.126;2023-06-24T08:12:27;3.00;;;2.70;;
19107;SDS011;9686;48.832;9.126;2023-06-24T08:14:53;4.90;;;3.27;;
19107;SDS011;9686;48.832;9.126;2023-06-24T08:17:18;3.73;;;2.80;;
19107;SDS011;9686;48.832;9.126;2023-06-24T08:19:43;3.47;;;3.17;;
19107;SDS011;9686;48.832;9.126;2023-06-24T08:22:09;4.30;;;3.40;;
19107;SDS011;9686;48.832;9.126;2023-06-24T08:24:34;4.90;;;2.90;;
19107;SDS011;9686;48.832;9.126;2023-06-24T08:27:01;3.23;;;2.93;;
19107;SDS011;9686;48.832;9.126;2023-06-24T08:32:29;3.97;;;3.10;;
19107;SDS011;9686;48.832;9.126;2023-06-24T08:34:54;3.40;;;3.10;;
19107;SDS011;9686;48.832;9.126;2023-06-24T08:37:19;5.00;;;2.67;;
19107;SDS011;9686;48.832;9.126;2023-06-24T08:39:45;3.33;;;3.03;;
19107;SDS011;9686;48.832;9.126;2023-06-24T08:42:10;4.37;;;3.23;;
19107;SDS011;9686;48.832;9.126;2023-06-24T08:44:35;3.23;;;2.63;;
19107;SDS011;9686;48.832;9.126;2023-06-24T08:47:01;3.90;;;2.90;;
19107;SDS011;9686;48.832;9.126;2023-06-24T08:49:28;2.70;;;2.50;;
19107;SDS011;9686;48.832;9.126;2023-06-24T08:52:13;3.37;;;2.70;;
19107;SDS011;9686;48.832;9.126;2023-06-24T08:54:40;2.80;;;2.50;;
19107;SDS011;9686;48.832;9.126;2023-06-24T08:57:06;3.70;;;2.70;;
19107;SDS011;9686;48.832;9.126;2023-06-24T08:59:33;5.20;;;3.20;;
19107;SDS011;9686;48.832;9.126;2023-06-24T09:02:00;3.77;;;3.03;;
19107;SDS011;9686;48.832;9.126;2023-06-24T09:04:25;3.30;;;3.00;;
19107;SDS011;9686;48.832;9.126;2023-06-24T09:06:50;3.87;;;3.40;;
19107;SDS011;9686;48.832;9.126;2023-06-24T09:09:20;4.13;;;2.90;;
19107;SDS011;9686;48.832;9.126;2023-06-24T09:11:53;3.27;;;2.97;;
19107;SDS011;9686;48.832;9.126;2023-06-24T09:14:20;3.07;;;2.77;;
19107;SDS011;9686;48.832;9.126;2023-06-24T09:16:56;3.20;;;2.67;;
19107;SDS011;9686;48.832;9.126;2023-06-24T09:19:23;3.40;;;2.80;;
19107;SDS011;9686;48.832;9.126;2023-06-24T09:21:53;3.33;;;3.03;;
19107;SDS011;9686;48.832;9.126;2023-06-24T09:24:18;4.47;;;3.37;;
19107;SDS011;9686;48.832;9.126;2023-06-24T09:26:44;4.70;;;2.93;;
19107;SDS011;9686;48.832;9.126;2023-06-24T09:29:12;2.97;;;2.73;;
19107;SDS011;9686;48.832;9.126;2023-06-24T09:31:48;4.73;;;3.00;;
19107;SDS011;9686;48.832;9.126;2023-06-24T09:34:14;3.03;;;2.40;;
19107;SDS011;9686;48.832;9.126;2023-06-24T09:36:50;2.67;;;2.47;;
19107;SDS011;9686;48.832;9.126;2023-06-24T09:39:20;3.53;;;2.53;;
19107;SDS011;9686;48.832;9.126;2023-06-24T09:41:50;3.17;;;2.70;;
19107;SDS011;9686;48.832;9.126;2023-06-24T09:44:15;3.77;;;2.90;;
19107;SDS011;9686;48.832;9.126;2023-06-24T09:46:41;5.27;;;3.37;;
19107;SDS011;9686;48.832;9.126;2023-06-24T09:49:08;3.30;;;3.00;;
19107;SDS011;9686;48.832;9.126;2023-06-24T09:51:35;4.57;;;3.00;;
19107;SDS011;9686;48.832;9.126;2023-06-24T09:54:04;3.23;;;2.90;;
19107;SDS011;9686;48.832;9.126;2023-06-24T09:56:31;2.63;;;2.40;;
19107;SDS011;9686;48.832;9.126;2023-06-24T09:59:00;3.47;;;2.90;;
19107;SDS011;9686;48.832;9.126;2023-06-24T10:01:26;6.07;;;2.93;;
19107;SDS011;9686;48.832;9.126;2023-06-24T10:03:52;2.33;;;2.13;;
19107;SDS011;9686;48.832;9.126;2023-06-24T10:06:18;2.80;;;2.57;;
19107;SDS011;9686;48.832;9.126;2023-06-24T10:08:44;2.70;;;2.40;;
19107;SDS011;9686;48.832;9.126;2023-06-24T10:11:09;3.63;;;2.67;;
19107;SDS011;9686;48.832;9.126;2023-06-24T10:13:34;3.03;;;2.73;;
19107;SDS011;9686;48.832;9.126;2023-06-24T10:16:00;4.30;;;2.37;;
19107;SDS011;9686;48.832;9.126;2023-06-24T10:18:36;2.73;;;2.27;;
19107;SDS011;9686;48.832;9.126;2023-06-24T10:21:03;2.70;;;2.50;;
19107;SDS011;9686;48.832;9.126;2023-06-24T10:23:51;2.93;;;2.63;;
19107;SDS011;9686;48.832;9.126;2023-06-24T10:26:25;2.47;;;2.27;;
19107;SDS011;9686;48.832;9.126;2023-06-24T10:34:20;3.67;;;2.57;;
19107;SDS011;9686;48.832;9.126;2023-06-24T10:44:48;3.07;;;2.77;;
19107;SDS011;9686;48.832;9.126;2023-06-24T10:47:14;2.47;;;2.28;;
19107;SDS011;9686;48.832;9.126;2023-06-24T10:49:40;2.60;;;2.40;;
19107;SDS011;9686;48.832;9.126;2023-06-24T10:52:11;2.60;;;2.20;;
19107;SDS011;9686;48.832;9.126;2023-06-24T10:54:37;3.03;;;2.35;;
19107;SDS011;9686;48.832;9.126;2023-06-24T10:57:06;2.90;;;2.10;;
19107;SDS011;9686;48.832;9.126;2023-06-24T10:59:42;4.55;;;2.28;;
19107;SDS011;9686;48.832;9.126;2023-06-24T11:02:15;3.30;;;2.50;;
19107;SDS011;9686;48.832;9.126;2023-06-24T11:04:55;3.33;;;2.70;;
19107;SDS011;9686;48.832;9.126;2023-06-24T11:07:22;3.00;;;2.33;;
19107;SDS011;9686;48.832;9.126;2023-06-24T11:09:49;2.30;;;2.00;;
19107;SDS011;9686;48.832;9.126;2023-06-24T11:12:15;3.17;;;2.10;;
19107;SDS011;9686;48.832;9.126;2023-06-24T11:14:41;2.03;;;1.70;;
19107;SDS011;9686;48.832;9.126;2023-06-24T11:17:06;1.90;;;1.70;;
19107;SDS011;9686;48.832;9.126;2023-06-24T11:19:32;3.00;;;2.17;;
19107;SDS011;9686;48.832;9.126;2023-06-24T11:22:00;1.83;;;1.67;;
19107;SDS011;9686;48.832;9.126;2023-06-24T11:24:29;2.33;;;2.13;;
19107;SDS011;9686;48.832;9.126;2023-06-24T11:26:55;2.53;;;1.90;;
19107;SDS011;9686;48.832;9.126;2023-06-24T11:29:21;4.07;;;2.17;;
19107;SDS011;9686;48.832;9.126;2023-06-24T11:31:46;3.22;;;2.40;;
19107;SDS011;9686;48.832;9.126;2023-06-24T11:34:12;2.47;;;2.28;;
19107;SDS011;9686;48.832;9.126;2023-06-24T11:36:37;2.78;;;2.58;;
19107;SDS011;9686;48.832;9.126;2023-06-24T11:39:02;2.58;;;2.30;;
19107;SDS011;9686;48.832;9.126;2023-06-24T11:41:28;3.83;;;2.45;;
19107;SDS011;9686;48.832;9.126;2023-06-24T11:43:53;3.03;;;2.60;;
19107;SDS011;9686;48.832;9.126;2023-06-24T11:46:28;2.45;;;2.25;;
19107;SDS011;9686;48.832;9.126;2023-06-24T11:49:06;3.30;;;2.13;;
19107;SDS011;9686;48.832;9.126;2023-06-24T11:51:32;3.30;;;2.83;;
19107;SDS011;9686;48.832;9.126;2023-06-24T11:53:59;4.00;;;2.58;;
19107;SDS011;9686;48.832;9.126;2023-06-24T11:56:38;3.38;;;2.35;;
19107;SDS011;9686;48.832;9.126;2023-06-24T11:59:15;2.58;;;2.38;;
19107;SDS011;9686;48.832;9.126;2023-06-24T12:01:42;2.80;;;2.60;;
19107;SDS011;9686;48.832;9.126;2023-06-24T12:04:14;2.83;;;2.40;;
19107;SDS011;9686;48.832;9.126;2023-06-24T12:06:40;3.13;;;2.45;;
19107;SDS011;9686;48.832;9.126;2023-06-24T12:09:06;3.75;;;2.53;;
19107;SDS011;9686;48.832;9.126;2023-06-24T12:11:35;2.88;;;2.67;;
19107;SDS011;9686;48.832;9.126;2023-06-24T12:14:01;3.05;;;2.80;;
19107;SDS011;9686;48.832;9.126;2023-06-24T12:16:26;2.85;;;2.47;;
19107;SDS011;9686;48.832;9.126;2023-06-24T12:18:52;2.88;;;2.67;;
19107;SDS011;9686;48.832;9.126;2023-06-24T12:21:18;2.45;;;2.25;;
19107;SDS011;9686;48.832;9.126;2023-06-24T12:23:44;3.53;;;2.55;;
19107;SDS011;9686;48.832;9.126;2023-06-24T12:26:10;3.10;;;2.80;;
19107;SDS011;9686;48.832;9.126;2023-06-24T12:28:35;3.00;;;2.80;;
19107;SDS011;9686;48.832;9.126;2023-06-24T12:31:01;3.47;;;2.97;;
19107;SDS011;9686;48.832;9.126;2023-06-24T12:33:26;4.05;;;2.55;;
19107;SDS011;9686;48.832;9.126;2023-06-24T12:35:51;3.45;;;2.80;;
19107;SDS011;9686;48.832;9.126;2023-06-24T12:38:16;4.43;;;2.92;;
19107;SDS011;9686;48.832;9.126;2023-06-24T12:40:42;3.10;;;2.80;;
19107;SDS011;9686;48.832;9.126;2023-06-24T12:43:08;2.80;;;2.53;;
19107;SDS011;9686;48.832;9.126;2023-06-24T12:45:33;3.22;;;2.92;;
19107;SDS011;9686;48.832;9.126;2023-06-24T12:47:58;2.78;;;2.50;;
19107;SDS011;9686;48.832;9.126;2023-06-24T12:50:24;2.78;;;2.53;;
19107;SDS011;9686;48.832;9.126;2023-06-24T12:52:50;2.55;;;2.35;;
19107;SDS011;9686;48.832;9.126;2023-06-24T12:55:15;2.58;;;2.38;;
19107;SDS011;9686;48.832;9.126;2023-06-24T12:57:40;2.78;;;2.50;;
19107;SDS011;9686;48.832;9.126;2023-06-24T13:00:07;3.00;;;2.70;;
19107;SDS011;9686;48.832;9.126;2023-06-24T13:02:33;3.15;;;2.83;;
19107;SDS011;9686;48.832;9.126;2023-06-24T13:04:59;3.97;;;2.67;;
19107;SDS011;9686;48.832;9.126;2023-06-24T13:07:24;2.53;;;2.33;;
19107;SDS011;9686;48.832;9.126;2023-06-24T13:09:50;3.03;;;2.63;;
19107;SDS011;9686;48.832;9.126;2023-06-24T13:12:15;2.65;;;2.40;;
19107;SDS011;9686;48.832;9.126;2023-06-24T13:14:40;2.80;;;2.58;;
19107;SDS011;9686;48.832;9.126;2023-06-24T13:17:05;2.55;;;2.33;;
19107;SDS011;9686;48.832;9.126;2023-06-24T13:19:31;3.10;;;2.50;;
19107;SDS011;9686;48.832;9.126;2023-06-24T13:21:57;2.50;;;2.30;;
19107;SDS011;9686;48.832;9.126;2023-06-24T13:24:23;2.60;;;2.40;;
19107;SDS011;9686;48.832;9.126;2023-06-24T13:26:49;2.47;;;2.28;;
19107;SDS011;9686;48.832;9.126;2023-06-24T13:29:14;3.83;;;2.80;;
19107;SDS011;9686;48.832;9.126;2023-06-24T13:31:39;2.50;;;2.30;;
19107;SDS011;9686;48.832;9.126;2023-06-24T13:34:05;2.75;;;2.55;;
19107;SDS011;9686;48.832;9.126;2023-06-24T13:36:32;3.20;;;2.75;;
19107;SDS011;9686;48.832;9.126;2023-06-24T13:39:00;2.60;;;2.40;;
19107;SDS011;9686;48.832;9.126;2023-06-24T13:41:27;3.17;;;2.20;;
19107;SDS011;9686;48.832;9.126;2023-06-24T13:43:54;2.63;;;2.40;;
19107;SDS011;9686;48.832;9.126;2023-06-24T13:46:20;4.05;;;2.78;;
19107;SDS011;9686;48.832;9.126;2023-06-24T13:48:46;3.13;;;2.70;;
19107;SDS011;9686;48.832;9.126;2023-06-24T13:51:11;3.33;;;2.65;;
19107;SDS011;9686;48.832;9.126;2023-06-24T13:53:37;2.60;;;2.40;;
19107;SDS011;9686;48.832;9.126;2023-06-24T13:56:02;2.63;;;2.22;;
19107;SDS011;9686;48.832;9.126;2023-06-24T13:58:28;2.75;;;2.50;;
19107;SDS011;9686;48.832;9.126;2023-06-24T14:00:53;3.72;;;2.78;;
19107;SDS011;9686;48.832;9.126;2023-06-24T14:03:18;2.67;;;2.47;;
19107;SDS011;9686;48.832;9.126;2023-06-24T14:05:44;2.60;;;2.40;;
19107;SDS011;9686;48.832;9.126;2023-06-24T14:08:09;3.97;;;2.30;;
19107;SDS011;9686;48.832;9.126;2023-06-24T14:10:34;2.50;;;2.30;;
19107;SDS011;9686;48.832;9.126;2023-06-24T14:13:00;3.75;;;2.70;;
19107;SDS011;9686;48.832;9.126;2023-06-24T14:15:25;3.42;;;2.92;;
19107;SDS011;9686;48.832;9.126;2023-06-24T14:17:50;2.92;;;2.70;;
19107;SDS011;9686;48.832;9.126;2023-06-24T14:20:16;3.28;;;2.72;;
19107;SDS011;9686;48.832;9.126;2023-06-24T14:22:41;2.92;;;2.72;;
19107;SDS011;9686;48.832;9.126;2023-06-24T14:25:07;2.83;;;2.60;;
19107;SDS011;9686;48.832;9.126;2023-06-24T14:27:32;6.18;;;3.00;;
19107;SDS011;9686;48.832;9.126;2023-06-24T14:29:57;2.90;;;2.70;;
19107;SDS011;9686;48.832;9.126;2023-06-24T14:32:23;3.85;;;2.85;;
19107;SDS011;9686;48.832;9.126;2023-06-24T14:34:48;3.10;;;2.80;;
19107;SDS011;9686;48.832;9.126;2023-06-24T14:37:13;3.15;;;2.83;;
19107;SDS011;9686;48.832;9.126;2023-06-24T14:39:39;3.28;;;2.97;;
19107;SDS011;9686;48.832;9.126;2023-06-24T14:42:05;2.92;;;2.63;;
19107;SDS011;9686;48.832;9.126;2023-06-24T14:44:30;2.80;;;2.60;;
19107;SDS011;9686;48.832;9.126;2023-06-24T14:46:56;2.58;;;2.38;;
19107;SDS011;9686;48.832;9.126;2023-06-24T14:49:21;3.13;;;2.90;;
19107;SDS011;9686;48.832;9.126;2023-06-24T14:51:46;8.27;;;3.28;;
19107;SDS011;9686;48.832;9.126;2023-06-24T14:54:11;3.75;;;2.95;;
19107;SDS011;9686;48.832;9.126;2023-06-24T14:56:37;6.05;;;3.22;;
19107;SDS011;9686;48.832;9.126;2023-06-24T14:59:02;3.47;;;2.92;;
19107;SDS011;9686;48.832;9.126;2023-06-24T15:01:27;3.47;;;2.60;;
19107;SDS011;9686;48.832;9.126;2023-06-24T15:03:53;2.97;;;2.65;;
19107;SDS011;9686;48.832;9.126;2023-06-24T15:06:18;2.80;;;2.60;;
19107;SDS011;9686;48.832;9.126;2023-06-24T15:08:43;3.40;;;3.10;;
19107;SDS011;9686;48.832;9.126;2023-06-24T15:11:09;6.05;;;3.10;;
19107;SDS011;9686;48.832;9.126;2023-06-24T15:13:34;3.08;;;2.78;;